Time;durP1;ratioP1;P1;durP2;ratioP2;P2;SDS_P1;SDS_P2;PMS_P1;PMS_P2;Temp;Humidity;BMP_temperature;BMP_pressure;BME280_temperature;BME280_humidity;BME280_pressure;Samples;Min_cycle;Max_cycle;Signal;HPM_P1;HPM_P2
2022/07/08 00:00:38;;;;;;;5.50;2.50;;;18.60;81.50;;;;;;5024970;28;20036;-81
2022/07/08 00:03:04;;;;;;;5.65;2.30;;;19.10;81.90;;;;;;5021639;28;20022;-81
2022/07/08 00:05:30;;;;;;;6.22;2.42;;;;;;;;;;5023670;28;20123;-81
2022/07/08 00:07:56;;;;;;;4.55;2.42;;;20.00;85.60;;;;;;5024770;28;20052;-81
2022/07/08 00:10:22;;;;;;;7.40;2.40;;;19.20;85.00;;;;;;5019901;28;20045;-81
2022/07/08 00:12:47;;;;;;;5.22;2.70;;;19.00;80.00;;;;;;5025955;28;20209;-81
2022/07/08 00:15:13;;;;;;;4.55;2.50;;;;;;;;;;5025302;28;20025;-80
2022/07/08 00:17:39;;;;;;;4.90;2.42;;;18.90;77.30;;;;;;5025183;28;20029;-81
2022/07/08 00:20:06;;;;;;;4.22;2.45;;;19.20;66.20;;;;;;5016713;28;20029;-81
2022/07/08 00:22:33;;;;;;;5.88;2.40;;;19.50;79.10;;;;;;5029522;28;20840;-80
2022/07/08 00:24:59;;;;;;;4.93;2.42;;;19.70;81.10;;;;;;5021742;28;20104;-81
2022/07/08 00:27:24;;;;;;;4.38;2.20;;;19.60;81.10;;;;;;5018415;28;20678;-81
2022/07/08 00:29:50;;;;;;;6.68;2.70;;;;;;;;;;5019586;28;20030;-80
2022/07/08 00:32:16;;;;;;;4.70;2.30;;;;;;;;;;5021988;28;20025;-81
2022/07/08 00:34:43;;;;;;;4.95;2.47;;;;;;;;;;5028659;28;20021;-81
2022/07/08 00:37:09;;;;;;;5.22;2.38;;;19.00;76.90;;;;;;5016160;28;20113;-81
2022/07/08 00:39:35;;;;;;;5.28;2.30;;;;;;;;;;5013805;28;20034;-81
2022/07/08 00:42:01;;;;;;;5.68;2.38;;;18.20;75.80;;;;;;5023742;28;20029;-81
2022/07/08 00:44:27;;;;;;;4.43;2.38;;;18.30;78.00;;;;;;5024904;28;20044;-81
2022/07/08 00:46:52;;;;;;;6.72;2.63;;;19.10;67.00;;;;;;5025244;28;20063;-82
2022/07/08 00:49:18;;;;;;;6.43;2.38;;;19.10;76.40;;;;;;5027847;28;20108;-80
2022/07/08 00:51:46;;;;;;;6.57;2.55;;;19.10;66.80;;;;;;5024306;28;20049;-81
2022/07/08 00:54:21;;;;;;;5.22;2.58;;;19.80;77.10;;;;;;5022321;28;20515;-81
2022/07/08 00:56:48;;;;;;;5.90;2.60;;;17.20;78.20;;;;;;5022289;28;20144;-81
2022/07/08 00:59:14;;;;;;;5.15;2.53;;;19.10;78.70;;;;;;5024990;28;20029;-81
2022/07/08 01:01:41;;;;;;;4.45;2.40;;;19.70;67.80;;;;;;5018683;28;20030;-81
2022/07/08 01:04:07;;;;;;;5.22;2.60;;;19.50;79.90;;;;;;5026300;28;20116;-81
2022/07/08 01:06:33;;;;;;;5.00;2.22;;;18.80;65.70;;;;;;5024748;28;20022;-81
2022/07/08 01:08:59;;;;;;;5.63;2.35;;;19.80;79.60;;;;;;5023908;28;20120;-81
2022/07/08 01:11:28;;;;;;;5.15;2.40;;;20.00;69.00;;;;;;5023477;28;20120;-81
2022/07/08 01:13:54;;;;;;;5.10;2.45;;;19.70;80.80;;;;;;5019163;28;20060;-81
2022/07/08 01:16:20;;;;;;;5.40;2.40;;;;;;;;;;5027809;28;20463;-81
2022/07/08 01:18:46;;;;;;;4.95;2.60;;;;;;;;;;5019477;28;20040;-81
2022/07/08 01:21:13;;;;;;;5.38;2.80;;;;;;;;;;5025028;28;20094;-81
2022/07/08 01:23:38;;;;;;;6.07;2.50;;;19.00;80.80;;;;;;5023937;28;20053;-81
2022/07/08 01:26:11;;;;;;;5.35;2.67;;;19.40;82.10;;;;;;5025020;28;20113;-81
2022/07/08 01:28:38;;;;;;;6.30;2.58;;;18.60;66.10;;;;;;5027780;28;20041;-81
2022/07/08 01:31:04;;;;;;;6.40;2.50;;;;;;;;;;5017005;28;20722;-81
2022/07/08 01:33:30;;;;;;;5.07;1.98;;;18.40;81.20;;;;;;5012996;28;20421;-81
2022/07/08 01:35:56;;;;;;;4.57;2.30;;;;;;;;;;5020937;28;20037;-81
2022/07/08 01:38:22;;;;;;;6.78;2.60;;;;;;;;;;5023397;28;20089;-81
2022/07/08 01:40:49;;;;;;;4.38;2.20;;;19.50;81.10;;;;;;5024748;28;20030;-81
2022/07/08 01:43:15;;;;;;;5.38;2.63;;;18.50;68.60;;;;;;5027965;28;20112;-81
2022/07/08 01:45:41;;;;;;;5.93;2.75;;;19.60;82.10;;;;;;5022133;28;20051;-81
2022/07/08 01:48:07;;;;;;;5.53;2.67;;;19.40;78.70;;;;;;5022864;28;20511;-81
2022/07/08 01:50:33;;;;;;;4.93;2.60;;;;;;;;;;5023514;28;20030;-81
2022/07/08 01:52:59;;;;;;;4.35;2.45;;;18.00;77.30;;;;;;5024455;28;20503;-81
2022/07/08 01:55:25;;;;;;;7.82;2.85;;;;;;;;;;5022115;28;20033;-81
2022/07/08 01:57:51;;;;;;;5.65;2.55;;;19.30;79.40;;;;;;5023060;28;20064;-80
2022/07/08 02:00:17;;;;;;;5.22;2.72;;;19.20;71.90;;;;;;5022988;28;20060;-82
2022/07/08 02:02:42;;;;;;;5.68;2.90;;;19.10;70.90;;;;;;5024203;28;20026;-80
2022/07/08 02:05:09;;;;;;;5.53;3.03;;;18.10;79.10;;;;;;5025056;28;20035;-81
2022/07/08 02:07:35;;;;;;;5.35;2.60;;;;;;;;;;5022195;28;20045;-81
2022/07/08 02:10:03;;;;;;;4.15;2.60;;;18.20;76.60;;;;;;5019592;28;20083;-81
2022/07/08 02:12:29;;;;;;;5.03;2.58;;;18.20;80.30;;;;;;5025616;28;20028;-81
2022/07/08 02:15:01;;;;;;;5.78;2.80;;;17.90;80.20;;;;;;5021506;28;20112;-82
2022/07/08 02:17:29;;;;;;;5.43;2.70;;;17.90;80.10;;;;;;5015264;28;20048;-82
2022/07/08 02:19:56;;;;;;;6.85;2.80;;;18.50;81.00;;;;;;5016708;28;20028;-81
2022/07/08 02:22:22;;;;;;;6.80;2.72;;;;;;;;;;5016774;28;20034;-82
2022/07/08 02:24:48;;;;;;;4.97;2.67;;;18.60;81.40;;;;;;5024212;28;20116;-82
2022/07/08 02:27:14;;;;;;;5.78;3.00;;;18.90;80.20;;;;;;5020949;28;20113;-81
2022/07/08 02:29:40;;;;;;;6.97;3.10;;;17.70;73.00;;;;;;5029454;28;20040;-82
2022/07/08 02:32:06;;;;;;;7.68;2.70;;;17.90;79.00;;;;;;5020932;28;20026;-82
2022/07/08 02:34:32;;;;;;;4.95;2.38;;;18.80;79.80;;;;;;5028001;28;20033;-82
2022/07/08 02:36:57;;;;;;;5.15;2.53;;;19.00;80.20;;;;;;5026300;28;20034;-82
2022/07/08 02:39:23;;;;;;;6.80;2.80;;;16.60;77.20;;;;;;5022993;28;20034;-82
2022/07/08 02:41:49;;;;;;;4.90;2.72;;;18.70;78.70;;;;;;5027050;28;20037;-82
2022/07/08 02:44:15;;;;;;;5.72;3.00;;;;;;;;;;5017970;28;20057;-82
2022/07/08 02:46:41;;;;;;;4.93;3.05;;;18.70;77.90;;;;;;5015208;28;20559;-82
2022/07/08 02:49:11;;;;;;;9.18;2.97;;;15.70;77.80;;;;;;5028457;28;20484;-82
2022/07/08 02:51:37;;;;;;;5.70;2.92;;;18.50;72.80;;;;;;5026294;28;20029;-82
2022/07/08 02:54:04;;;;;;;5.22;3.10;;;17.50;66.70;;;;;;5026218;28;20373;-82
2022/07/08 02:56:30;;;;;;;5.13;3.03;;;17.90;76.70;;;;;;5026835;28;20108;-80
2022/07/08 02:58:56;;;;;;;4.68;3.03;;;;;;;;;;5029558;28;20109;-81
2022/07/08 03:01:22;;;;;;;7.45;3.17;;;;;;;;;;5030854;28;20485;-81
2022/07/08 03:03:48;;;;;;;5.05;2.50;;;17.10;76.70;;;;;;5027027;28;20029;-82
2022/07/08 03:06:14;;;;;;;4.78;2.47;;;;;;;;;;5022863;28;20457;-81
2022/07/08 03:08:40;;;;;;;4.60;2.83;;;;;;;;;;5022675;28;20060;-81
2022/07/08 03:11:06;;;;;;;6.43;2.80;;;15.00;74.60;;;;;;5026640;28;20440;-81
2022/07/08 03:13:32;;;;;;;4.53;3.05;;;17.60;76.50;;;;;;5027812;28;20025;-82
2022/07/08 03:15:58;;;;;;;5.38;2.88;;;18.10;78.70;;;;;;5025518;28;20108;-81
2022/07/08 03:18:24;;;;;;;6.43;2.95;;;17.90;76.20;;;;;;5025950;28;20104;-82
2022/07/08 03:20:50;;;;;;;5.50;3.00;;;17.20;67.50;;;;;;5026621;28;20030;-82
2022/07/08 03:23:16;;;;;;;4.93;2.92;;;17.20;67.60;;;;;;5021895;28;20386;-81
2022/07/08 03:25:42;;;;;;;4.60;3.05;;;15.00;75.00;;;;;;5029431;28;20098;-81
2022/07/08 03:28:07;;;;;;;7.65;3.30;;;17.50;76.90;;;;;;5027333;28;20503;-81
2022/07/08 03:30:33;;;;;;;5.45;3.25;;;18.00;76.80;;;;;;5029299;28;20029;-81
2022/07/08 03:32:59;;;;;;;6.32;3.30;;;16.90;76.70;;;;;;5021290;28;20069;-81
2022/07/08 03:35:25;;;;;;;4.40;3.10;;;16.40;76.30;;;;;;5028605;28;20061;-81
2022/07/08 03:37:50;;;;;;;5.40;2.92;;;18.10;78.10;;;;;;5014468;28;20568;-80
2022/07/08 03:43:00;;;;;;;5.35;2.83;;;17.80;76.80;;;;;;5021634;28;20041;-82
2022/07/08 03:45:26;;;;;;;5.88;3.30;;;16.90;67.40;;;;;;5028006;28;20037;-81
2022/07/08 03:47:52;;;;;;;8.15;3.00;;;16.90;67.40;;;;;;5026139;28;20033;-81
2022/07/08 03:50:19;;;;;;;5.57;2.90;;;16.80;67.50;;;;;;5022915;28;20104;-81
2022/07/08 03:52:46;;;;;;;5.43;3.13;;;16.80;67.30;;;;;;5028024;28;20037;-81
2022/07/08 03:55:12;;;;;;;5.72;3.47;;;17.50;75.10;;;;;;5029433;28;20092;-81
2022/07/08 03:57:38;;;;;;;5.25;3.03;;;16.40;75.80;;;;;;5021315;28;20475;-81
2022/07/08 04:00:08;;;;;;;7.18;2.97;;;16.70;67.60;;;;;;5032147;28;20022;-81
2022/07/08 04:02:34;;;;;;;5.07;2.80;;;16.70;67.50;;;;;;5022949;28;20451;-81
2022/07/08 04:05:00;;;;;;;4.60;2.60;;;16.60;67.10;;;;;;5025881;28;20030;-81
2022/07/08 04:07:26;;;;;;;6.35;3.10;;;16.60;66.80;;;;;;5026527;28;20508;-86
2022/07/08 04:09:52;;;;;;;7.97;3.10;;;16.60;66.80;;;;;;5024970;28;20042;-85
2022/07/08 04:12:18;;;;;;;5.28;3.15;;;17.40;77.50;;;;;;5025431;28;20382;-84
2022/07/08 04:14:43;;;;;;;9.75;2.70;;;17.40;77.30;;;;;;5025557;28;20037;-85
2022/07/08 04:17:10;;;;;;;6.15;3.10;;;15.70;77.10;;;;;;5018676;28;20018;-85
2022/07/08 04:19:36;;;;;;;5.65;3.35;;;;;;;;;;5023460;28;20116;-86
2022/07/08 04:22:02;;;;;;;5.80;3.28;;;16.50;74.80;;;;;;5025576;28;20029;-85
2022/07/08 04:24:28;;;;;;;9.57;3.28;;;17.00;75.90;;;;;;5021730;28;20798;-78
2022/07/08 04:26:53;;;;;;;5.50;3.15;;;16.30;67.00;;;;;;5023174;28;20041;-79
2022/07/08 04:29:19;;;;;;;5.35;3.13;;;16.40;67.20;;;;;;5022485;28;20558;-76
2022/07/08 04:31:45;;;;;;;5.90;3.40;;;16.30;67.20;;;;;;5025894;28;20033;-80
2022/07/08 04:34:10;;;;;;;5.65;3.05;;;16.40;67.00;;;;;;5026613;28;20042;-81
2022/07/08 04:36:37;;;;;;;8.13;3.25;;;16.30;66.60;;;;;;5025999;28;20025;-82
2022/07/08 04:39:03;;;;;;;14.18;5.18;;;15.70;74.90;;;;;;5025178;28;20119;-79
2022/07/08 04:41:29;;;;;;;5.93;3.40;;;13.80;73.80;;;;;;5024979;28;20067;-80
2022/07/08 04:43:54;;;;;;;6.57;3.45;;;16.20;67.30;;;;;;5025715;28;20523;-84
2022/07/08 04:46:20;;;;;;;5.45;3.58;;;14.90;74.40;;;;;;5026309;28;20199;-83
2022/07/08 04:48:46;;;;;;;6.18;3.38;;;16.20;67.80;;;;;;5026327;28;20119;-76
2022/07/08 04:51:11;;;;;;;6.25;3.55;;;14.10;75.90;;;;;;5022188;28;20036;-79
2022/07/08 04:53:37;;;;;;;5.28;3.45;;;16.90;78.00;;;;;;5024551;28;20039;-78
2022/07/08 04:56:03;;;;;;;7.25;3.83;;;16.10;77.80;;;;;;5025317;28;20061;-79
2022/07/08 04:58:29;;;;;;;6.60;3.75;;;16.20;78.10;;;;;;5029529;28;20408;-80
2022/07/08 05:00:54;;;;;;;7.32;3.70;;;15.90;78.80;;;;;;5022993;28;20714;-84
2022/07/08 05:03:20;;;;;;;7.75;3.78;;;17.40;78.40;;;;;;5024356;28;20138;-88
2022/07/08 05:05:46;;;;;;;6.53;3.80;;;16.90;79.80;;;;;;5022350;28;20030;-92
2022/07/08 05:08:11;;;;;;;10.70;3.58;;;16.30;69.10;;;;;;5026630;28;20041;-86
2022/07/08 05:10:37;;;;;;;8.38;3.33;;;16.30;69.20;;;;;;5039325;28;20120;-87
2022/07/08 05:13:05;;;;;;;5.55;3.45;;;16.10;76.50;;;;;;5034123;28;20029;-89
2022/07/08 05:15:31;;;;;;;7.78;3.65;;;16.00;76.20;;;;;;5020776;28;20764;-88
2022/07/08 05:17:56;;;;;;;5.30;3.72;;;16.30;77.20;;;;;;5021778;28;20033;-88
2022/07/08 05:20:22;;;;;;;5.55;3.65;;;16.40;69.10;;;;;;5025816;28;20032;-89
2022/07/08 05:22:48;;;;;;;5.75;3.53;;;15.00;77.10;;;;;;5023716;28;20507;-82
2022/07/08 05:25:13;;;;;;;7.05;3.70;;;14.80;77.30;;;;;;5033107;28;20443;-86
2022/07/08 05:27:40;;;;;;;5.18;3.42;;;16.40;69.70;;;;;;5022683;28;20093;-79
2022/07/08 05:30:08;;;;;;;7.78;4.00;;;16.50;70.00;;;;;;5026146;28;20055;-83
2022/07/08 05:32:34;;;;;;;8.40;4.25;;;16.60;70.40;;;;;;5022620;28;20030;-85
2022/07/08 05:35:01;;;;;;;7.13;4.30;;;16.70;70.70;;;;;;5014974;28;20022;-86
2022/07/08 05:37:27;;;;;;;7.78;4.75;;;16.70;71.10;;;;;;5029241;28;20051;-85
2022/07/08 05:39:53;;;;;;;6.68;4.40;;;16.80;71.80;;;;;;5026123;28;20440;-82
2022/07/08 05:42:22;;;;;;;8.10;4.65;;;18.40;82.50;;;;;;5020460;28;20587;-82
2022/07/08 05:44:48;;;;;;;7.15;4.53;;;16.50;80.10;;;;;;5023606;28;20809;-82
2022/07/08 05:47:14;;;;;;;6.00;4.25;;;17.00;73.10;;;;;;5023254;28;20072;-83
2022/07/08 05:49:43;;;;;;;8.43;4.30;;;17.00;80.40;;;;;;5027149;28;20037;-81
2022/07/08 05:52:09;;;;;;;9.13;4.88;;;17.20;73.60;;;;;;5025132;28;20527;-85
2022/07/08 05:54:35;;;;;;;6.60;4.38;;;18.20;81.50;;;;;;5023672;28;20038;-84
2022/07/08 05:57:01;;;;;;;7.35;4.38;;;17.40;73.70;;;;;;5020670;28;20400;-85
2022/07/08 05:59:27;;;;;;;8.10;4.38;;;17.60;74.80;;;;;;5026033;28;20037;-85
2022/07/08 06:01:53;;;;;;;7.63;4.15;;;18.50;82.90;;;;;;5010745;28;20148;-85
2022/07/08 06:04:18;;;;;;;6.07;3.78;;;17.80;74.10;;;;;;5015219;28;20446;-85
2022/07/08 06:06:44;;;;;;;10.75;5.10;;;18.00;75.30;;;;;;5012337;28;20029;-88
2022/07/08 06:09:11;;;;;;;8.13;3.63;;;18.10;73.80;;;;;;5019922;28;20113;-84
2022/07/08 06:11:37;;;;;;;8.75;4.53;;;18.30;73.80;;;;;;5023813;28;20087;-86
2022/07/08 06:14:03;;;;;;;5.38;3.47;;;18.40;73.40;;;;;;5015190;28;20109;-82
2022/07/08 06:16:29;;;;;;;7.70;3.55;;;18.50;73.10;;;;;;5027117;28;20112;-83
2022/07/08 06:18:54;;;;;;;6.72;3.47;;;18.70;72.80;;;;;;5012164;28;20787;-82
2022/07/08 06:21:20;;;;;;;6.93;2.90;;;19.80;78.60;;;;;;5016972;28;20033;-87
2022/07/08 06:23:46;;;;;;;8.57;3.20;;;16.60;76.10;;;;;;5017946;28;20090;-89
2022/07/08 06:26:11;;;;;;;6.63;3.20;;;19.50;77.20;;;;;;5023814;28;20033;-85
2022/07/08 06:28:37;;;;;;;7.10;3.30;;;21.20;76.70;;;;;;5005018;28;20686;-87
2022/07/08 06:31:03;;;;;;;5.60;2.80;;;;;;;;;;5004952;28;20038;-87
2022/07/08 06:33:29;;;;;;;7.63;2.72;;;19.30;75.30;;;;;;5003264;28;20396;-77
2022/07/08 06:35:55;;;;;;;5.40;3.00;;;20.20;75.20;;;;;;5004949;28;20691;-77
2022/07/08 06:38:20;;;;;;;7.85;2.97;;;20.50;75.60;;;;;;5002939;28;20101;-78
2022/07/08 06:40:46;;;;;;;7.45;2.92;;;20.90;73.70;;;;;;5001378;28;20113;-80
2022/07/08 06:43:12;;;;;;;7.45;3.10;;;20.10;72.50;;;;;;5001936;28;20018;-89
2022/07/08 06:45:38;;;;;;;6.50;2.72;;;22.20;74.20;;;;;;5001377;28;20069;-86
2022/07/08 06:48:04;;;;;;;5.68;2.67;;;19.90;71.80;;;;;;5001081;28;20065;-86
2022/07/08 06:50:30;;;;;;;6.38;2.40;;;20.10;70.90;;;;;;5001739;28;20124;-83
2022/07/08 06:52:56;;;;;;;6.25;2.55;;;20.90;68.40;;;;;;5003134;28;20076;-89
2022/07/08 06:55:22;;;;;;;5.68;2.20;;;21.60;65.40;;;;;;5006182;28;20053;-88
2022/07/08 06:57:48;;;;;;;5.20;2.08;;;22.60;60.60;;;;;;5003074;28;20030;-89
2022/07/08 07:00:14;;;;;;;4.70;2.30;;;27.10;59.70;;;;;;5006511;28;20050;-85
2022/07/08 07:02:46;;;;;;;6.72;2.30;;;24.90;53.10;;;;;;5001553;28;20034;-90
2022/07/08 07:05:13;;;;;;;5.85;2.20;;;27.80;50.60;;;;;;4993665;28;20036;-91
2022/07/08 07:07:39;;;;;;;6.97;2.10;;;27.60;39.80;;;;;;5011796;28;20950;-92
2022/07/08 07:10:07;;;;;;;4.13;1.75;;;27.60;40.60;;;;;;5007075;28;20050;-90
2022/07/08 07:12:33;;;;;;;6.05;2.20;;;28.20;38.90;;;;;;5005792;28;20459;-81
2022/07/08 07:14:58;;;;;;;40.47;2.90;;;28.70;37.80;;;;;;5000625;28;20030;-82
2022/07/08 07:17:24;;;;;;;6.22;1.90;;;28.30;40.10;;;;;;5003133;28;20423;-93
2022/07/08 07:19:50;;;;;;;5.28;1.77;;;29.30;36.00;;;;;;5008901;28;20100;-94
2022/07/08 07:22:17;;;;;;;6.10;2.08;;;30.00;40.60;;;;;;5009764;28;20404;-89
2022/07/08 07:24:44;;;;;;;8.63;1.80;;;30.00;34.30;;;;;;5004684;28;20022;-91
2022/07/08 07:27:10;;;;;;;4.57;1.63;;;30.40;33.70;;;;;;5000891;28;20038;-88
2022/07/08 07:29:35;;;;;;;6.55;1.75;;;30.60;33.20;;;;;;5007829;28;20033;-85
2022/07/08 07:32:01;;;;;;;5.43;1.50;;;30.90;32.30;;;;;;5005184;28;20072;-89
2022/07/08 07:34:27;;;;;;;4.95;1.67;;;31.20;31.10;;;;;;5008496;28;20037;-90
2022/07/08 07:36:55;;;;;;;7.40;1.60;;;30.50;33.90;;;;;;5003772;28;20463;-94
2022/07/08 07:39:21;;;;;;;5.38;1.63;;;31.30;32.80;;;;;;4998244;28;20484;-93
2022/07/08 07:41:46;;;;;;;4.35;1.55;;;32.00;29.50;;;;;;5011598;28;20029;-94
2022/07/08 07:44:12;;;;;;;6.75;1.48;;;32.00;29.50;;;;;;5013923;28;20038;-96
2022/07/08 07:46:38;;;;;;;4.32;1.52;;;31.80;29.20;;;;;;5008950;28;20511;-90
2022/07/08 07:49:04;;;;;;;7.03;1.63;;;30.40;33.60;;;;;;5002434;28;20815;-85
2022/07/08 07:51:30;;;;;;;4.22;1.30;;;30.70;30.30;;;;;;5010578;28;20052;-84
2022/07/08 07:53:56;;;;;;;6.63;1.42;;;30.90;35.10;;;;;;5003074;28;20018;-92
2022/07/08 07:56:23;;;;;;;6.07;1.38;;;28.80;36.30;;;;;;5007046;28;20496;-80
2022/07/08 07:58:49;;;;;;;7.07;1.50;;;28.70;33.20;;;;;;5006313;28;20030;-84
2022/07/08 08:01:15;;;;;;;6.03;1.63;;;28.20;34.30;;;;;;5005561;28;20037;-82
2022/07/08 08:03:41;;;;;;;5.18;1.20;;;27.90;34.60;;;;;;5006430;28;20445;-81
2022/07/08 08:06:10;;;;;;;6.55;1.58;;;27.50;34.90;;;;;;5005097;28;20493;-88
2022/07/08 08:08:36;;;;;;;6.35;1.40;;;27.20;35.80;;;;;;5008861;28;20104;-82
2022/07/08 08:11:03;;;;;;;6.10;1.30;;;26.10;39.00;;;;;;5009485;28;20022;-83
2022/07/08 08:13:29;;;;;;;5.13;1.60;;;26.90;38.00;;;;;;5007722;28;20512;-87
2022/07/08 08:15:56;;;;;;;8.18;1.40;;;26.80;37.90;;;;;;4999489;28;20058;-90
2022/07/08 08:18:22;;;;;;;6.65;1.55;;;26.80;38.10;;;;;;5004162;28;20041;-86
2022/07/08 08:20:49;;;;;;;3.72;1.30;;;26.80;38.20;;;;;;5007320;28;20030;-90
2022/07/08 08:23:15;;;;;;;4.72;1.30;;;26.70;39.10;;;;;;5008072;28;20031;-90
2022/07/08 08:25:42;;;;;;;5.78;1.50;;;;;;;;;;5021670;28;20026;-90
2022/07/08 08:28:08;;;;;;;6.10;1.48;;;26.50;37.60;;;;;;5011753;28;20050;-86
2022/07/08 08:30:35;;;;;;;4.47;1.15;;;26.50;39.60;;;;;;5005168;28;20030;-88
2022/07/08 08:33:02;;;;;;;8.27;1.33;;;26.50;38.50;;;;;;5003315;28;20022;-91
2022/07/08 08:35:27;;;;;;;6.68;1.63;;;26.50;38.60;;;;;;5005329;28;20105;-87
2022/07/08 08:37:53;;;;;;;5.60;1.15;;;26.60;39.10;;;;;;5004601;28;20109;-92
2022/07/08 08:40:24;;;;;;;7.28;1.50;;;26.50;39.10;;;;;;5006400;28;20034;-86
2022/07/08 08:42:49;;;;;;;;;;;26.50;38.30;;;;;;5004565;28;20052;-90
2022/07/08 08:45:15;;;;;;;5.00;1.20;;;26.60;39.20;;;;;;5002439;28;20316;-85
2022/07/08 08:47:45;;;;;;;7.03;1.67;;;26.70;38.40;;;;;;5005018;28;20038;-87
2022/07/08 08:52:56;;;;;;;4.55;1.30;;;26.50;38.60;;;;;;5003543;28;20049;-90
2022/07/08 08:55:26;;;;;;;5.40;1.27;;;27.00;37.60;;;;;;5008901;28;20061;-81
2022/07/08 08:57:55;;;;;;;7.70;1.50;;;27.30;37.70;;;;;;5001964;28;20088;-87
2022/07/08 09:00:22;;;;;;;6.65;1.50;;;27.50;36.90;;;;;;5011384;28;20409;-89
2022/07/08 09:02:47;;;;;;;4.38;1.50;;;27.70;36.60;;;;;;5014696;28;20185;-90
2022/07/08 09:05:14;;;;;;;6.60;1.23;;;27.90;36.90;;;;;;4994577;28;20467;-79
2022/07/08 09:07:40;;;;;;;4.68;1.30;;;28.20;36.10;;;;;;5003698;28;20053;-94
2022/07/08 09:10:07;;;;;;;3.65;1.30;;;28.30;35.10;;;;;;5006386;28;20084;-90
2022/07/08 09:12:33;;;;;;;6.40;1.10;;;28.40;34.80;;;;;;5004708;28;20072;-89
2022/07/08 09:15:00;;;;;;;3.85;1.23;;;28.60;34.20;;;;;;5000630;28;20030;-86
2022/07/08 09:17:26;;;;;;;6.10;1.60;;;28.80;33.90;;;;;;5005433;28;20073;-87
2022/07/08 09:19:52;;;;;;;4.97;1.30;;;28.80;35.60;;;;;;4999769;28;20057;-84
2022/07/08 09:22:23;;;;;;;8.13;1.52;;;29.10;33.90;;;;;;5009840;28;20038;-84
2022/07/08 09:24:48;;;;;;;;;;;29.60;33.80;;;;;;5003824;28;20080;-82
2022/07/08 09:27:15;;;;;;;9.38;1.60;;;30.10;32.50;;;;;;4999905;28;20505;-83
2022/07/08 09:29:58;;;;;;;3.90;1.50;;;31.20;31.60;;;;;;5006084;28;20021;-84
2022/07/08 09:32:25;;;;;;;5.85;1.40;;;31.50;30.10;;;;;;5002749;28;20034;-93
2022/07/08 09:34:50;;;;;;;5.15;1.30;;;32.40;28.40;;;;;;5009892;28;20188;-92
2022/07/08 09:37:20;;;;;;;5.75;1.42;;;33.10;27.50;;;;;;5003443;28;20113;-83
2022/07/08 09:39:46;;;;;;;7.35;1.40;;;33.60;26.70;;;;;;4998864;28;20493;-92
2022/07/08 09:42:14;;;;;;;5.20;1.50;;;34.10;26.40;;;;;;5004468;28;20498;-90
2022/07/08 09:44:41;;;;;;;6.97;1.42;;;34.50;26.00;;;;;;5003531;28;20105;-90
2022/07/08 09:47:10;;;;;;;8.65;1.38;;;34.90;25.60;;;;;;5003077;28;20034;-91
2022/07/08 09:49:40;;;;;;;7.85;1.70;;;35.40;25.00;;;;;;5005742;28;20109;-90
2022/07/08 09:52:06;;;;;;;3.35;1.15;;;35.90;24.70;;;;;;5009084;28;20180;-90
2022/07/08 09:54:32;;;;;;;5.85;1.23;;;36.30;24.50;;;;;;5001410;28;20556;-92
2022/07/08 09:57:04;;;;;;;6.38;1.23;;;37.00;24.00;;;;;;5003687;28;20040;-89
2022/07/08 09:59:31;;;;;;;6.00;1.20;;;37.60;23.50;;;;;;5002497;28;20025;-89
2022/07/08 10:01:58;;;;;;;4.70;1.25;;;38.10;23.10;;;;;;5004043;28;20267;-83
2022/07/08 10:04:25;;;;;;;6.57;1.20;;;38.30;21.90;;;;;;5001184;28;20018;-84
2022/07/08 10:06:52;;;;;;;4.20;1.10;;;38.60;21.70;;;;;;4998520;28;20727;-83
2022/07/08 10:09:19;;;;;;;7.63;1.50;;;38.70;21.40;;;;;;5001459;28;20049;-77
2022/07/08 10:11:47;;;;;;;10.00;1.63;;;38.70;21.30;;;;;;5001722;28;20112;-86
2022/07/08 10:14:12;;;;;;;4.60;1.15;;;38.80;21.20;;;;;;5002793;28;20664;-82
2022/07/08 10:16:40;;;;;;;5.97;1.67;;;39.10;21.20;;;;;;5001023;28;20034;-85
2022/07/08 10:19:17;;;;;;;8.15;1.40;;;39.50;20.90;;;;;;5003658;28;20061;-88
2022/07/08 10:21:50;;;;;;;6.00;1.30;;;39.60;20.60;;;;;;5004238;28;20030;-87
2022/07/08 10:24:20;;;;;;;7.75;1.35;;;39.70;20.50;;;;;;5000267;28;20420;-84
2022/07/08 10:26:47;;;;;;;5.80;1.10;;;40.00;20.30;;;;;;5005744;28;20029;-85
2022/07/08 10:29:14;;;;;;;4.55;1.35;;;40.30;19.90;;;;;;5003495;28;20054;-85
2022/07/08 10:31:47;;;;;;;11.05;1.27;;;40.50;19.50;;;;;;5003482;28;20025;-82
2022/07/08 10:34:21;;;;;;;4.68;1.35;;;40.80;19.10;;;;;;5005609;28;20454;-84
2022/07/08 10:36:53;;;;;;;2.83;0.95;;;41.20;19.10;;;;;;5002932;28;20033;-89
2022/07/08 10:39:30;;;;;;;6.28;1.20;;;41.60;18.80;;;;;;5003317;28;20030;-83
2022/07/08 10:42:01;;;;;;;5.95;1.20;;;41.70;17.90;;;;;;5002146;28;20504;-85
2022/07/08 10:44:43;;;;;;;5.72;1.00;;;41.90;18.30;;;;;;5003703;28;20034;-87
2022/07/08 10:47:13;;;;;;;5.10;1.10;;;42.10;18.40;;;;;;5001870;28;20036;-87
2022/07/08 10:49:46;;;;;;;4.80;0.90;;;42.40;17.90;;;;;;5006952;28;20045;-87
2022/07/08 10:52:13;;;;;;;6.78;1.02;;;42.40;17.50;;;;;;5001806;28;20040;-90
2022/07/08 10:54:39;;;;;;;6.35;1.02;;;42.40;17.80;;;;;;5005259;28;20034;-91
2022/07/08 10:57:13;;;;;;;4.13;0.98;;;42.50;17.70;;;;;;5005545;28;20089;-88
2022/07/08 10:59:39;;;;;;;5.07;1.13;;;42.50;17.50;;;;;;5010222;28;20037;-87
2022/07/08 11:02:11;;;;;;;4.38;1.10;;;42.50;17.10;;;;;;5008054;28;20022;-89
2022/07/08 11:04:40;;;;;;;3.50;0.95;;;42.50;16.60;;;;;;5010373;28;20080;-85
2022/07/08 11:07:20;;;;;;;4.80;1.20;;;42.40;16.70;;;;;;5007013;28;20580;-86
2022/07/08 11:09:48;;;;;;;6.57;1.00;;;42.70;17.10;;;;;;5007707;28;20129;-86
2022/07/08 11:12:16;;;;;;;4.20;0.90;;;42.80;17.20;;;;;;5010471;28;20026;-81
2022/07/08 11:14:45;;;;;;;10.05;1.08;;;42.80;17.20;;;;;;5005516;28;20075;-86
2022/07/08 11:17:31;;;;;;;5.88;1.27;;;43.10;16.90;;;;;;5007885;28;20062;-79
2022/07/08 11:19:59;;;;;;;4.50;1.15;;;43.20;16.90;;;;;;5006779;28;20125;-94
2022/07/08 11:22:26;;;;;;;6.13;1.10;;;43.30;16.90;;;;;;5011620;28;20030;-82
2022/07/08 11:24:55;;;;;;;30.20;2.03;;;43.40;16.80;;;;;;5008027;28;20315;-88
2022/07/08 11:27:29;;;;;;;7.18;0.90;;;43.30;16.90;;;;;;5010275;28;20037;-85
2022/07/08 11:29:55;;;;;;;5.72;1.20;;;43.30;17.00;;;;;;5008949;28;20026;-82
2022/07/08 11:32:22;;;;;;;3.95;1.05;;;43.50;16.30;;;;;;5004252;28;20038;-82
2022/07/08 11:34:49;;;;;;;7.30;1.10;;;43.50;16.30;;;;;;5006759;28;20022;-84
2022/07/08 11:37:16;;;;;;;7.22;1.10;;;43.60;16.70;;;;;;4999098;28;20156;-82
2022/07/08 11:39:42;;;;;;;3.83;0.90;;;43.70;16.20;;;;;;5004219;28;20273;-89
2022/07/08 11:42:09;;;;;;;3.42;0.95;;;43.80;16.00;;;;;;5004823;28;20036;-90
2022/07/08 11:44:35;;;;;;;7.63;1.10;;;43.80;15.60;;;;;;5004030;28;20226;-89
2022/07/08 11:47:01;;;;;;;4.70;1.00;;;43.80;16.20;;;;;;5000928;28;21800;-90
2022/07/08 11:49:27;;;;;;;5.50;1.00;;;43.80;16.30;;;;;;5003234;28;20042;-90
2022/07/08 11:51:57;;;;;;;3.58;0.95;;;43.80;16.30;;;;;;5000175;28;20025;-90
2022/07/08 11:54:25;;;;;;;5.65;1.08;;;44.10;16.30;;;;;;5005641;28;20510;-90
2022/07/08 11:56:59;;;;;;;4.05;1.20;;;44.20;16.40;;;;;;5004059;28;20113;-90
2022/07/08 11:59:33;;;;;;;4.13;1.10;;;44.30;16.40;;;;;;5000749;28;20042;-89
2022/07/08 12:02:01;;;;;;;7.38;1.48;;;44.20;16.60;;;;;;5002413;28;20649;-87
2022/07/08 12:04:26;;;;;;;5.07;1.10;;;44.30;16.40;;;;;;5005619;28;20026;-88
2022/07/08 12:06:59;;;;;;;3.60;0.93;;;44.40;16.10;;;;;;5002489;28;20034;-87
2022/07/08 12:09:26;;;;;;;3.92;1.10;;;44.40;16.30;;;;;;5004242;28;20053;-87
2022/07/08 12:11:54;;;;;;;3.53;1.00;;;44.30;16.20;;;;;;5002731;28;20247;-88
2022/07/08 12:14:21;;;;;;;4.35;1.10;;;44.20;16.50;;;;;;5003043;28;20034;-88
2022/07/08 12:16:50;;;;;;;4.00;1.20;;;44.20;16.30;;;;;;5005331;28;20194;-87
2022/07/08 12:19:29;;;;;;;4.35;1.00;;;44.10;16.40;;;;;;5004521;28;20159;-88
2022/07/08 12:21:57;;;;;;;4.28;1.00;;;44.20;16.30;;;;;;5001385;28;20138;-84
2022/07/08 12:24:25;;;;;;;2.73;1.00;;;44.20;16.20;;;;;;5001552;28;20038;-83
2022/07/08 12:27:05;;;;;;;4.10;1.05;;;44.10;16.10;;;;;;5004315;28;20324;-89
2022/07/08 12:29:36;;;;;;;4.78;1.10;;;44.10;16.20;;;;;;5002433;28;20052;-91
2022/07/08 12:32:06;;;;;;;4.43;1.00;;;44.10;16.30;;;;;;5005063;28;20030;-90
2022/07/08 12:34:33;;;;;;;5.22;1.10;;;44.00;16.30;;;;;;5000849;28;20045;-89
2022/07/08 12:37:16;;;;;;;4.68;1.00;;;44.00;16.40;;;;;;5002130;28;20046;-89
2022/07/08 12:39:42;;;;;;;4.35;0.93;;;44.00;16.50;;;;;;5001513;28;20125;-89
2022/07/08 12:42:08;;;;;;;4.35;1.00;;;43.80;16.60;;;;;;5003807;28;20029;-88
2022/07/08 12:44:46;;;;;;;3.58;0.90;;;43.80;16.60;;;;;;5002747;28;20029;-87
2022/07/08 12:47:12;;;;;;;4.70;1.00;;;44.00;16.60;;;;;;5003237;28;20029;-87
2022/07/08 12:49:43;;;;;;;4.90;0.98;;;44.00;16.60;;;;;;5000323;28;20084;-85
2022/07/08 12:52:10;;;;;;;2.70;1.00;;;43.90;16.50;;;;;;5003709;28;20064;-86
2022/07/08 12:54:38;;;;;;;4.68;1.05;;;43.80;16.10;;;;;;4999691;28;20052;-85
2022/07/08 12:57:05;;;;;;;5.35;1.20;;;40.90;15.70;;;;;;5002223;28;20025;-81
2022/07/08 12:59:35;;;;;;;4.35;1.60;;;43.20;16.90;;;;;;5000416;28;20030;-85